sensor_id;sensor_type;location;lat;lon;timestamp;P1;durP1;ratioP1;P2;durP2;ratioP2
62654;SDS011;48717;55.556;37.816;2023-01-29T00:01:55;68.82;;;16.08;;
62654;SDS011;48717;55.556;37.816;2023-01-29T00:04:22;108.18;;;21.40;;
62654;SDS011;48717;55.556;37.816;2023-01-29T00:06:49;80.05;;;17.98;;
62654;SDS011;48717;55.556;37.816;2023-01-29T00:09:17;89.22;;;19.60;;
62654;SDS011;48717;55.556;37.816;2023-01-29T00:11:44;77.55;;;15.13;;
62654;SDS011;48717;55.556;37.816;2023-01-29T00:14:11;51.60;;;12.13;;
62654;SDS011;48717;55.556;37.816;2023-01-29T00:16:39;67.72;;;15.63;;
62654;SDS011;48717;55.556;37.816;2023-01-29T00:19:06;82.50;;;18.70;;
62654;SDS011;48717;55.556;37.816;2023-01-29T00:21:35;81.53;;;16.48;;
62654;SDS011;48717;55.556;37.816;2023-01-29T00:24:02;81.18;;;18.02;;
62654;SDS011;48717;55.556;37.816;2023-01-29T00:26:30;32.40;;;10.65;;
62654;SDS011;48717;55.556;37.816;2023-01-29T00:28:57;87.28;;;19.42;;
62654;SDS011;48717;55.556;37.816;2023-01-29T00:31:26;31.75;;;10.88;;
62654;SDS011;48717;55.556;37.816;2023-01-29T00:33:53;62.33;;;15.75;;
62654;SDS011;48717;55.556;37.816;2023-01-29T00:36:29;75.68;;;18.50;;
62654;SDS011;48717;55.556;37.816;2023-01-29T00:39:04;67.95;;;16.25;;
62654;SDS011;48717;55.556;37.816;2023-01-29T00:41:44;45.53;;;11.27;;
62654;SDS011;48717;55.556;37.816;2023-01-29T00:44:31;67.38;;;16.80;;
62654;SDS011;48717;55.556;37.816;2023-01-29T00:47:38;68.55;;;14.05;;
62654;SDS011;48717;55.556;37.816;2023-01-29T00:50:07;80.72;;;17.60;;
62654;SDS011;48717;55.556;37.816;2023-01-29T00:52:39;71.72;;;16.15;;
62654;SDS011;48717;55.556;37.816;2023-01-29T00:55:08;56.80;;;14.93;;
62654;SDS011;48717;55.556;37.816;2023-01-29T00:57:36;68.57;;;17.80;;
62654;SDS011;48717;55.556;37.816;2023-01-29T01:00:06;44.00;;;13.23;;
62654;SDS011;48717;55.556;37.816;2023-01-29T01:02:38;42.08;;;11.07;;
62654;SDS011;48717;55.556;37.816;2023-01-29T01:05:25;35.00;;;11.27;;
62654;SDS011;48717;55.556;37.816;2023-01-29T01:07:54;51.88;;;13.32;;
62654;SDS011;48717;55.556;37.816;2023-01-29T01:10:34;47.08;;;12.18;;
62654;SDS011;48717;55.556;37.816;2023-01-29T01:13:05;67.05;;;17.60;;
62654;SDS011;48717;55.556;37.816;2023-01-29T01:15:37;42.38;;;11.23;;
62654;SDS011;48717;55.556;37.816;2023-01-29T01:18:14;28.30;;;10.60;;
62654;SDS011;48717;55.556;37.816;2023-01-29T01:20:43;59.75;;;15.18;;
62654;SDS011;48717;55.556;37.816;2023-01-29T01:23:12;42.85;;;11.45;;
62654;SDS011;48717;55.556;37.816;2023-01-29T01:25:40;50.58;;;15.15;;
62654;SDS011;48717;55.556;37.816;2023-01-29T01:28:08;72.03;;;17.92;;
62654;SDS011;48717;55.556;37.816;2023-01-29T01:30:37;37.10;;;11.68;;
62654;SDS011;48717;55.556;37.816;2023-01-29T01:33:05;69.75;;;18.40;;
62654;SDS011;48717;55.556;37.816;2023-01-29T01:36:24;44.95;;;13.00;;
62654;SDS011;48717;55.556;37.816;2023-01-29T01:39:16;55.40;;;16.17;;
62654;SDS011;48717;55.556;37.816;2023-01-29T01:41:54;62.60;;;17.17;;
62654;SDS011;48717;55.556;37.816;2023-01-29T01:47:23;48.55;;;15.05;;
62654;SDS011;48717;55.556;37.816;2023-01-29T01:49:55;56.92;;;16.63;;
62654;SDS011;48717;55.556;37.816;2023-01-29T01:52:33;40.90;;;11.07;;
62654;SDS011;48717;55.556;37.816;2023-01-29T01:55:10;46.47;;;13.25;;
62654;SDS011;48717;55.556;37.816;2023-01-29T01:57:57;22.02;;;8.32;;
62654;SDS011;48717;55.556;37.816;2023-01-29T02:00:33;32.10;;;10.80;;
62654;SDS011;48717;55.556;37.816;2023-01-29T02:03:18;32.42;;;11.43;;
62654;SDS011;48717;55.556;37.816;2023-01-29T02:06:42;35.58;;;10.93;;
62654;SDS011;48717;55.556;37.816;2023-01-29T02:09:35;32.58;;;11.32;;
62654;SDS011;48717;55.556;37.816;2023-01-29T02:12:27;57.92;;;17.75;;
62654;SDS011;48717;55.556;37.816;2023-01-29T02:15:02;59.05;;;18.30;;
62654;SDS011;48717;55.556;37.816;2023-01-29T02:17:30;41.90;;;13.90;;
62654;SDS011;48717;55.556;37.816;2023-01-29T02:32:02;43.08;;;14.85;;
62654;SDS011;48717;55.556;37.816;2023-01-29T02:37:52;43.92;;;14.60;;
62654;SDS011;48717;55.556;37.816;2023-01-29T02:40:28;36.65;;;11.80;;
62654;SDS011;48717;55.556;37.816;2023-01-29T02:46:15;34.90;;;13.07;;
62654;SDS011;48717;55.556;37.816;2023-01-29T02:55:29;32.40;;;11.93;;
62654;SDS011;48717;55.556;37.816;2023-01-29T02:58:14;36.90;;;12.18;;
62654;SDS011;48717;55.556;37.816;2023-01-29T03:00:51;28.33;;;12.60;;
62654;SDS011;48717;55.556;37.816;2023-01-29T03:03:30;29.92;;;13.18;;
62654;SDS011;48717;55.556;37.816;2023-01-29T03:08:59;27.77;;;11.38;;
62654;SDS011;48717;55.556;37.816;2023-01-29T03:12:22;29.13;;;10.90;;
62654;SDS011;48717;55.556;37.816;2023-01-29T03:15:08;26.25;;;11.07;;
62654;SDS011;48717;55.556;37.816;2023-01-29T03:18:20;23.70;;;10.38;;
62654;SDS011;48717;55.556;37.816;2023-01-29T03:21:42;20.10;;;8.18;;
62654;SDS011;48717;55.556;37.816;2023-01-29T03:24:56;19.73;;;8.07;;
62654;SDS011;48717;55.556;37.816;2023-01-29T03:30:48;16.88;;;6.57;;
62654;SDS011;48717;55.556;37.816;2023-01-29T03:34:28;10.30;;;5.18;;
62654;SDS011;48717;55.556;37.816;2023-01-29T03:37:06;14.48;;;6.32;;
62654;SDS011;48717;55.556;37.816;2023-01-29T03:39:39;10.40;;;4.93;;
62654;SDS011;48717;55.556;37.816;2023-01-29T03:47:54;12.25;;;5.57;;
62654;SDS011;48717;55.556;37.816;2023-01-29T03:51:11;10.48;;;5.90;;
62654;SDS011;48717;55.556;37.816;2023-01-29T03:53:50;14.70;;;5.82;;
62654;SDS011;48717;55.556;37.816;2023-01-29T03:56:50;9.70;;;4.95;;
62654;SDS011;48717;55.556;37.816;2023-01-29T04:02:47;10.02;;;4.68;;
62654;SDS011;48717;55.556;37.816;2023-01-29T04:05:19;7.25;;;4.22;;
62654;SDS011;48717;55.556;37.816;2023-01-29T04:08:06;11.15;;;4.90;;
62654;SDS011;48717;55.556;37.816;2023-01-29T04:10:38;10.70;;;4.70;;
62654;SDS011;48717;55.556;37.816;2023-01-29T04:13:56;8.93;;;4.25;;
62654;SDS011;48717;55.556;37.816;2023-01-29T04:16:28;9.73;;;3.90;;
62654;SDS011;48717;55.556;37.816;2023-01-29T04:19:20;8.82;;;4.50;;
62654;SDS011;48717;55.556;37.816;2023-01-29T04:21:54;10.82;;;4.47;;
62654;SDS011;48717;55.556;37.816;2023-01-29T04:24:45;9.63;;;3.92;;
62654;SDS011;48717;55.556;37.816;2023-01-29T05:00:09;8.40;;;4.78;;
62654;SDS011;48717;55.556;37.816;2023-01-29T05:02:47;9.07;;;4.28;;
62654;SDS011;48717;55.556;37.816;2023-01-29T05:05:17;9.00;;;3.92;;
62654;SDS011;48717;55.556;37.816;2023-01-29T05:08:04;7.00;;;3.17;;
62654;SDS011;48717;55.556;37.816;2023-01-29T05:10:33;2.90;;;1.50;;
62654;SDS011;48717;55.556;37.816;2023-01-29T05:13:02;10.38;;;4.63;;
62654;SDS011;48717;55.556;37.816;2023-01-29T05:16:01;9.40;;;4.28;;
62654;SDS011;48717;55.556;37.816;2023-01-29T05:18:54;3.38;;;2.25;;
62654;SDS011;48717;55.556;37.816;2023-01-29T05:21:23;3.85;;;2.33;;
62654;SDS011;48717;55.556;37.816;2023-01-29T05:26:48;7.50;;;2.20;;
62654;SDS011;48717;55.556;37.816;2023-01-29T05:29:35;9.77;;;3.92;;
62654;SDS011;48717;55.556;37.816;2023-01-29T05:32:02;8.60;;;4.68;;
62654;SDS011;48717;55.556;37.816;2023-01-29T05:34:29;5.47;;;3.00;;
62654;SDS011;48717;55.556;37.816;2023-01-29T05:36:56;7.47;;;3.47;;
62654;SDS011;48717;55.556;37.816;2023-01-29T05:39:26;11.13;;;5.00;;
62654;SDS011;48717;55.556;37.816;2023-01-29T05:41:56;7.97;;;4.33;;
62654;SDS011;48717;55.556;37.816;2023-01-29T05:44:23;10.63;;;4.82;;
62654;SDS011;48717;55.556;37.816;2023-01-29T05:46:50;9.93;;;4.35;;
62654;SDS011;48717;55.556;37.816;2023-01-29T05:50:01;8.10;;;3.75;;
62654;SDS011;48717;55.556;37.816;2023-01-29T05:52:29;6.75;;;3.45;;
62654;SDS011;48717;55.556;37.816;2023-01-29T05:54:56;7.75;;;3.30;;
62654;SDS011;48717;55.556;37.816;2023-01-29T05:57:23;5.13;;;3.42;;
62654;SDS011;48717;55.556;37.816;2023-01-29T05:59:50;8.43;;;3.95;;
62654;SDS011;48717;55.556;37.816;2023-01-29T06:02:17;8.80;;;4.40;;
62654;SDS011;48717;55.556;37.816;2023-01-29T06:04:44;8.38;;;3.97;;
62654;SDS011;48717;55.556;37.816;2023-01-29T06:07:11;9.18;;;4.10;;
62654;SDS011;48717;55.556;37.816;2023-01-29T06:09:39;8.80;;;4.97;;
62654;SDS011;48717;55.556;37.816;2023-01-29T06:12:14;2.31;;;1.67;;
62654;SDS011;48717;55.556;37.816;2023-01-29T06:14:42;7.85;;;2.67;;
62654;SDS011;48717;55.556;37.816;2023-01-29T06:17:09;7.57;;;4.03;;
62654;SDS011;48717;55.556;37.816;2023-01-29T06:19:36;7.10;;;3.75;;
62654;SDS011;48717;55.556;37.816;2023-01-29T06:22:03;4.03;;;2.33;;
62654;SDS011;48717;55.556;37.816;2023-01-29T06:24:30;9.05;;;4.30;;
62654;SDS011;48717;55.556;37.816;2023-01-29T06:26:59;11.95;;;5.68;;
62654;SDS011;48717;55.556;37.816;2023-01-29T06:29:26;6.43;;;3.30;;
62654;SDS011;48717;55.556;37.816;2023-01-29T06:31:53;4.57;;;2.08;;
62654;SDS011;48717;55.556;37.816;2023-01-29T06:34:21;10.38;;;4.97;;
62654;SDS011;48717;55.556;37.816;2023-01-29T06:36:48;12.07;;;4.82;;
62654;SDS011;48717;55.556;37.816;2023-01-29T06:39:15;8.82;;;3.88;;
62654;SDS011;48717;55.556;37.816;2023-01-29T06:41:42;8.00;;;3.78;;
62654;SDS011;48717;55.556;37.816;2023-01-29T06:44:11;11.93;;;5.88;;
62654;SDS011;48717;55.556;37.816;2023-01-29T06:46:38;7.93;;;4.03;;
62654;SDS011;48717;55.556;37.816;2023-01-29T06:49:05;11.32;;;5.80;;
62654;SDS011;48717;55.556;37.816;2023-01-29T06:51:32;8.13;;;3.60;;
62654;SDS011;48717;55.556;37.816;2023-01-29T06:53:59;8.43;;;3.63;;
62654;SDS011;48717;55.556;37.816;2023-01-29T06:56:27;11.18;;;5.20;;
62654;SDS011;48717;55.556;37.816;2023-01-29T06:58:54;13.18;;;5.85;;
62654;SDS011;48717;55.556;37.816;2023-01-29T07:01:21;11.60;;;6.28;;
62654;SDS011;48717;55.556;37.816;2023-01-29T07:04:02;6.53;;;3.08;;
62654;SDS011;48717;55.556;37.816;2023-01-29T07:06:36;10.30;;;5.47;;
62654;SDS011;48717;55.556;37.816;2023-01-29T07:09:03;5.05;;;2.72;;
62654;SDS011;48717;55.556;37.816;2023-01-29T07:11:31;10.02;;;5.65;;
62654;SDS011;48717;55.556;37.816;2023-01-29T07:14:00;16.88;;;4.35;;
62654;SDS011;48717;55.556;37.816;2023-01-29T07:16:35;10.63;;;4.45;;
62654;SDS011;48717;55.556;37.816;2023-01-29T07:19:13;13.88;;;5.90;;
62654;SDS011;48717;55.556;37.816;2023-01-29T07:21:41;7.43;;;3.60;;
62654;SDS011;48717;55.556;37.816;2023-01-29T07:24:08;10.70;;;5.38;;
62654;SDS011;48717;55.556;37.816;2023-01-29T07:26:36;13.98;;;6.53;;
62654;SDS011;48717;55.556;37.816;2023-01-29T07:29:03;13.77;;;6.03;;
62654;SDS011;48717;55.556;37.816;2023-01-29T07:31:30;23.20;;;7.97;;
62654;SDS011;48717;55.556;37.816;2023-01-29T07:33:57;6.65;;;2.95;;
62654;SDS011;48717;55.556;37.816;2023-01-29T07:36:26;20.80;;;8.43;;
62654;SDS011;48717;55.556;37.816;2023-01-29T07:38:55;11.75;;;5.15;;
62654;SDS011;48717;55.556;37.816;2023-01-29T07:41:22;32.40;;;9.48;;
62654;SDS011;48717;55.556;37.816;2023-01-29T07:43:49;11.40;;;5.78;;
62654;SDS011;48717;55.556;37.816;2023-01-29T07:47:02;25.17;;;9.00;;
62654;SDS011;48717;55.556;37.816;2023-01-29T07:49:30;15.13;;;5.80;;
62654;SDS011;48717;55.556;37.816;2023-01-29T07:51:57;28.30;;;10.45;;
62654;SDS011;48717;55.556;37.816;2023-01-29T07:54:24;15.38;;;6.35;;
62654;SDS011;48717;55.556;37.816;2023-01-29T07:56:55;16.85;;;7.40;;
62654;SDS011;48717;55.556;37.816;2023-01-29T07:59:22;33.75;;;8.90;;
62654;SDS011;48717;55.556;37.816;2023-01-29T08:01:49;30.33;;;11.00;;
62654;SDS011;48717;55.556;37.816;2023-01-29T08:06:56;20.85;;;7.38;;
62654;SDS011;48717;55.556;37.816;2023-01-29T08:09:23;22.30;;;8.48;;
62654;SDS011;48717;55.556;37.816;2023-01-29T08:11:51;39.53;;;12.43;;
62654;SDS011;48717;55.556;37.816;2023-01-29T08:14:18;37.45;;;11.02;;
62654;SDS011;48717;55.556;37.816;2023-01-29T08:16:45;30.38;;;10.02;;
62654;SDS011;48717;55.556;37.816;2023-01-29T08:19:13;21.85;;;9.32;;
62654;SDS011;48717;55.556;37.816;2023-01-29T08:21:40;16.13;;;6.90;;
62654;SDS011;48717;55.556;37.816;2023-01-29T08:24:07;12.63;;;5.35;;
62654;SDS011;48717;55.556;37.816;2023-01-29T08:26:34;18.30;;;7.07;;
62654;SDS011;48717;55.556;37.816;2023-01-29T08:29:01;24.50;;;9.43;;
62654;SDS011;48717;55.556;37.816;2023-01-29T08:31:28;19.00;;;6.63;;
62654;SDS011;48717;55.556;37.816;2023-01-29T08:33:56;10.05;;;3.63;;
62654;SDS011;48717;55.556;37.816;2023-01-29T08:36:24;14.07;;;6.43;;
62654;SDS011;48717;55.556;37.816;2023-01-29T08:38:51;18.75;;;6.95;;
62654;SDS011;48717;55.556;37.816;2023-01-29T08:41:18;13.38;;;5.38;;
62654;SDS011;48717;55.556;37.816;2023-01-29T08:43:45;13.52;;;6.07;;
62654;SDS011;48717;55.556;37.816;2023-01-29T08:46:12;13.52;;;6.15;;
62654;SDS011;48717;55.556;37.816;2023-01-29T08:48:39;12.63;;;5.00;;
62654;SDS011;48717;55.556;37.816;2023-01-29T08:51:07;14.27;;;6.22;;
62654;SDS011;48717;55.556;37.816;2023-01-29T08:53:34;7.75;;;3.95;;
62654;SDS011;48717;55.556;37.816;2023-01-29T08:56:02;12.80;;;5.05;;
62654;SDS011;48717;55.556;37.816;2023-01-29T08:58:29;25.10;;;9.48;;
62654;SDS011;48717;55.556;37.816;2023-01-29T09:01:03;13.65;;;6.25;;
62654;SDS011;48717;55.556;37.816;2023-01-29T09:03:32;5.25;;;2.13;;
62654;SDS011;48717;55.556;37.816;2023-01-29T09:05:59;3.33;;;2.10;;
62654;SDS011;48717;55.556;37.816;2023-01-29T09:08:26;4.63;;;2.40;;
62654;SDS011;48717;55.556;37.816;2023-01-29T09:10:53;4.53;;;2.00;;
62654;SDS011;48717;55.556;37.816;2023-01-29T09:13:20;4.68;;;2.28;;
62654;SDS011;48717;55.556;37.816;2023-01-29T09:15:47;6.90;;;2.42;;
62654;SDS011;48717;55.556;37.816;2023-01-29T09:18:14;7.43;;;2.78;;
62654;SDS011;48717;55.556;37.816;2023-01-29T09:20:42;4.03;;;1.80;;
62654;SDS011;48717;55.556;37.816;2023-01-29T09:23:09;4.03;;;2.10;;
62654;SDS011;48717;55.556;37.816;2023-01-29T09:25:36;5.00;;;2.72;;
62654;SDS011;48717;55.556;37.816;2023-01-29T09:28:04;5.10;;;3.15;;
62654;SDS011;48717;55.556;37.816;2023-01-29T09:30:32;3.83;;;2.00;;
62654;SDS011;48717;55.556;37.816;2023-01-29T09:33:00;5.82;;;2.55;;
62654;SDS011;48717;55.556;37.816;2023-01-29T09:35:27;3.88;;;1.70;;
62654;SDS011;48717;55.556;37.816;2023-01-29T09:37:54;3.53;;;1.40;;
62654;SDS011;48717;55.556;37.816;2023-01-29T09:42:56;5.65;;;2.22;;
62654;SDS011;48717;55.556;37.816;2023-01-29T09:45:30;5.00;;;2.60;;
62654;SDS011;48717;55.556;37.816;2023-01-29T09:47:58;4.25;;;2.30;;
62654;SDS011;48717;55.556;37.816;2023-01-29T09:50:36;3.30;;;1.77;;
62654;SDS011;48717;55.556;37.816;2023-01-29T09:53:11;3.78;;;2.35;;
62654;SDS011;48717;55.556;37.816;2023-01-29T09:55:45;3.42;;;1.73;;
62654;SDS011;48717;55.556;37.816;2023-01-29T10:03:57;2.47;;;1.40;;
62654;SDS011;48717;55.556;37.816;2023-01-29T10:17:39;5.63;;;2.60;;
62654;SDS011;48717;55.556;37.816;2023-01-29T10:23:38;5.03;;;2.28;;
62654;SDS011;48717;55.556;37.816;2023-01-29T10:26:21;8.40;;;3.70;;
62654;SDS011;48717;55.556;37.816;2023-01-29T10:28:50;3.50;;;1.90;;
62654;SDS011;48717;55.556;37.816;2023-01-29T10:34:02;3.83;;;1.65;;
62654;SDS011;48717;55.556;37.816;2023-01-29T10:36:41;2.45;;;1.55;;
62654;SDS011;48717;55.556;37.816;2023-01-29T10:53:34;3.38;;;2.15;;
62654;SDS011;48717;55.556;37.816;2023-01-29T10:58:58;5.18;;;2.95;;
62654;SDS011;48717;55.556;37.816;2023-01-29T11:01:31;4.68;;;2.85;;
62654;SDS011;48717;55.556;37.816;2023-01-29T11:03:59;6.47;;;2.88;;
62654;SDS011;48717;55.556;37.816;2023-01-29T11:06:30;3.33;;;2.08;;
62654;SDS011;48717;55.556;37.816;2023-01-29T11:11:47;4.15;;;2.03;;
62654;SDS011;48717;55.556;37.816;2023-01-29T11:14:30;5.32;;;2.97;;
62654;SDS011;48717;55.556;37.816;2023-01-29T11:17:03;5.38;;;2.15;;
62654;SDS011;48717;55.556;37.816;2023-01-29T11:19:41;4.45;;;1.58;;
62654;SDS011;48717;55.556;37.816;2023-01-29T11:22:14;4.75;;;2.35;;
62654;SDS011;48717;55.556;37.816;2023-01-29T11:24:46;4.05;;;2.20;;
62654;SDS011;48717;55.556;37.816;2023-01-29T11:27:46;3.05;;;1.98;;
62654;SDS011;48717;55.556;37.816;2023-01-29T11:33:23;3.60;;;2.30;;
62654;SDS011;48717;55.556;37.816;2023-01-29T11:39:36;6.25;;;2.67;;
62654;SDS011;48717;55.556;37.816;2023-01-29T11:42:17;6.35;;;2.67;;
62654;SDS011;48717;55.556;37.816;2023-01-29T11:46:04;5.18;;;3.13;;
62654;SDS011;48717;55.556;37.816;2023-01-29T11:48:45;7.32;;;3.22;;
62654;SDS011;48717;55.556;37.816;2023-01-29T11:52:16;6.15;;;2.35;;
62654;SDS011;48717;55.556;37.816;2023-01-29T11:54:48;15.18;;;5.88;;
62654;SDS011;48717;55.556;37.816;2023-01-29T11:57:34;4.78;;;1.92;;
62654;SDS011;48717;55.556;37.816;2023-01-29T12:00:16;10.70;;;3.30;;
62654;SDS011;48717;55.556;37.816;2023-01-29T12:03:10;4.28;;;1.83;;
62654;SDS011;48717;55.556;37.816;2023-01-29T12:05:40;4.55;;;2.45;;
62654;SDS011;48717;55.556;37.816;2023-01-29T12:08:23;6.00;;;2.85;;
62654;SDS011;48717;55.556;37.816;2023-01-29T12:10:50;5.95;;;3.00;;
62654;SDS011;48717;55.556;37.816;2023-01-29T12:13:33;6.57;;;3.00;;
62654;SDS011;48717;55.556;37.816;2023-01-29T12:16:21;7.38;;;3.08;;
62654;SDS011;48717;55.556;37.816;2023-01-29T12:25:00;6.82;;;3.38;;
62654;SDS011;48717;55.556;37.816;2023-01-29T12:28:06;7.65;;;3.92;;
62654;SDS011;48717;55.556;37.816;2023-01-29T12:33:19;9.00;;;3.60;;
62654;SDS011;48717;55.556;37.816;2023-01-29T12:38:47;8.10;;;3.60;;
62654;SDS011;48717;55.556;37.816;2023-01-29T12:43:58;3.67;;;1.85;;
62654;SDS011;48717;55.556;37.816;2023-01-29T12:46:36;9.95;;;3.25;;
62654;SDS011;48717;55.556;37.816;2023-01-29T12:49:14;9.77;;;3.80;;
62654;SDS011;48717;55.556;37.816;2023-01-29T12:51:52;8.25;;;3.45;;
62654;SDS011;48717;55.556;37.816;2023-01-29T12:58:04;5.95;;;2.95;;
62654;SDS011;48717;55.556;37.816;2023-01-29T13:00:44;7.13;;;3.75;;
62654;SDS011;48717;55.556;37.816;2023-01-29T13:06:07;9.32;;;3.38;;
62654;SDS011;48717;55.556;37.816;2023-01-29T13:08:42;12.02;;;4.88;;
62654;SDS011;48717;55.556;37.816;2023-01-29T13:11:39;6.75;;;3.92;;
62654;SDS011;48717;55.556;37.816;2023-01-29T13:14:29;12.23;;;5.00;;
62654;SDS011;48717;55.556;37.816;2023-01-29T13:17:13;7.22;;;4.15;;
62654;SDS011;48717;55.556;37.816;2023-01-29T13:20:12;7.90;;;4.05;;
62654;SDS011;48717;55.556;37.816;2023-01-29T13:22:57;3.80;;;2.63;;
62654;SDS011;48717;55.556;37.816;2023-01-29T13:25:30;8.55;;;4.60;;
62654;SDS011;48717;55.556;37.816;2023-01-29T13:27:57;10.18;;;4.40;;
62654;SDS011;48717;55.556;37.816;2023-01-29T13:30:28;13.90;;;7.25;;
62654;SDS011;48717;55.556;37.816;2023-01-29T13:32:59;10.60;;;4.53;;
62654;SDS011;48717;55.556;37.816;2023-01-29T13:35:40;10.90;;;4.47;;
62654;SDS011;48717;55.556;37.816;2023-01-29T13:38:20;6.78;;;3.85;;
62654;SDS011;48717;55.556;37.816;2023-01-29T13:40:51;9.20;;;4.57;;
62654;SDS011;48717;55.556;37.816;2023-01-29T13:43:22;9.32;;;3.85;;
62654;SDS011;48717;55.556;37.816;2023-01-29T13:45:50;7.68;;;3.75;;
62654;SDS011;48717;55.556;37.816;2023-01-29T13:48:29;13.25;;;5.28;;
62654;SDS011;48717;55.556;37.816;2023-01-29T13:51:01;8.23;;;4.32;;
62654;SDS011;48717;55.556;37.816;2023-01-29T13:53:37;6.50;;;3.40;;
62654;SDS011;48717;55.556;37.816;2023-01-29T13:59:20;10.07;;;4.93;;
62654;SDS011;48717;55.556;37.816;2023-01-29T14:06:53;6.97;;;2.67;;
62654;SDS011;48717;55.556;37.816;2023-01-29T14:14:50;14.13;;;6.25;;
62654;SDS011;48717;55.556;37.816;2023-01-29T14:17:20;6.55;;;3.42;;
62654;SDS011;48717;55.556;37.816;2023-01-29T14:19:47;6.35;;;3.40;;
62654;SDS011;48717;55.556;37.816;2023-01-29T14:22:22;11.18;;;4.32;;
62654;SDS011;48717;55.556;37.816;2023-01-29T14:24:54;4.90;;;2.78;;
62654;SDS011;48717;55.556;37.816;2023-01-29T14:27:25;11.30;;;4.38;;
62654;SDS011;48717;55.556;37.816;2023-01-29T14:30:00;11.15;;;4.40;;
62654;SDS011;48717;55.556;37.816;2023-01-29T14:32:29;14.50;;;4.65;;
62654;SDS011;48717;55.556;37.816;2023-01-29T14:43:01;4.65;;;2.72;;
62654;SDS011;48717;55.556;37.816;2023-01-29T14:45:46;12.93;;;5.65;;
62654;SDS011;48717;55.556;37.816;2023-01-29T14:51:07;9.48;;;4.75;;
62654;SDS011;48717;55.556;37.816;2023-01-29T14:56:25;10.60;;;5.03;;
62654;SDS011;48717;55.556;37.816;2023-01-29T14:59:21;18.70;;;7.00;;
62654;SDS011;48717;55.556;37.816;2023-01-29T15:01:53;11.05;;;4.53;;
62654;SDS011;48717;55.556;37.816;2023-01-29T15:04:37;13.15;;;6.30;;
62654;SDS011;48717;55.556;37.816;2023-01-29T15:09:47;9.95;;;4.18;;
62654;SDS011;48717;55.556;37.816;2023-01-29T15:12:30;10.38;;;5.05;;
62654;SDS011;48717;55.556;37.816;2023-01-29T15:17:54;7.75;;;3.88;;
62654;SDS011;48717;55.556;37.816;2023-01-29T15:20:31;11.52;;;4.80;;
62654;SDS011;48717;55.556;37.816;2023-01-29T15:22:59;9.85;;;4.55;;
62654;SDS011;48717;55.556;37.816;2023-01-29T15:25:45;9.00;;;5.05;;
62654;SDS011;48717;55.556;37.816;2023-01-29T15:28:15;8.15;;;3.25;;
62654;SDS011;48717;55.556;37.816;2023-01-29T15:30:42;12.75;;;5.13;;
62654;SDS011;48717;55.556;37.816;2023-01-29T15:33:12;11.60;;;4.82;;
62654;SDS011;48717;55.556;37.816;2023-01-29T15:35:40;11.75;;;4.95;;
62654;SDS011;48717;55.556;37.816;2023-01-29T15:43:33;8.20;;;3.67;;
62654;SDS011;48717;55.556;37.816;2023-01-29T15:46:06;12.90;;;5.65;;
62654;SDS011;48717;55.556;37.816;2023-01-29T15:48:39;11.00;;;4.25;;
62654;SDS011;48717;55.556;37.816;2023-01-29T15:51:09;15.55;;;6.80;;
62654;SDS011;48717;55.556;37.816;2023-01-29T15:53:43;15.13;;;5.70;;
62654;SDS011;48717;55.556;37.816;2023-01-29T15:56:16;12.52;;;6.03;;
62654;SDS011;48717;55.556;37.816;2023-01-29T15:58:47;8.52;;;4.65;;
62654;SDS011;48717;55.556;37.816;2023-01-29T16:01:17;15.30;;;6.55;;
62654;SDS011;48717;55.556;37.816;2023-01-29T16:03:44;11.75;;;5.85;;
62654;SDS011;48717;55.556;37.816;2023-01-29T16:08:43;11.02;;;4.68;;
62654;SDS011;48717;55.556;37.816;2023-01-29T16:11:14;14.07;;;6.18;;
62654;SDS011;48717;55.556;37.816;2023-01-29T16:13:42;11.77;;;5.75;;
62654;SDS011;48717;55.556;37.816;2023-01-29T16:18:42;9.55;;;5.28;;
62654;SDS011;48717;55.556;37.816;2023-01-29T16:24:07;19.45;;;6.30;;
62654;SDS011;48717;55.556;37.816;2023-01-29T16:26:44;12.73;;;6.13;;
62654;SDS011;48717;55.556;37.816;2023-01-29T16:29:15;12.50;;;5.40;;
62654;SDS011;48717;55.556;37.816;2023-01-29T16:37:37;11.13;;;4.68;;
62654;SDS011;48717;55.556;37.816;2023-01-29T16:48:50;22.02;;;8.25;;
62654;SDS011;48717;55.556;37.816;2023-01-29T16:54:12;18.83;;;7.43;;
62654;SDS011;48717;55.556;37.816;2023-01-29T16:56:48;16.05;;;5.90;;
62654;SDS011;48717;55.556;37.816;2023-01-29T16:59:34;16.40;;;6.13;;
62654;SDS011;48717;55.556;37.816;2023-01-29T17:02:07;12.80;;;5.93;;
62654;SDS011;48717;55.556;37.816;2023-01-29T17:07:25;11.20;;;5.18;;
62654;SDS011;48717;55.556;37.816;2023-01-29T17:09:53;16.98;;;6.28;;
62654;SDS011;48717;55.556;37.816;2023-01-29T17:12:24;10.95;;;5.03;;
62654;SDS011;48717;55.556;37.816;2023-01-29T17:15:03;12.18;;;5.10;;
62654;SDS011;48717;55.556;37.816;2023-01-29T17:21:34;12.00;;;5.90;;
62654;SDS011;48717;55.556;37.816;2023-01-29T17:24:01;15.82;;;6.22;;
62654;SDS011;48717;55.556;37.816;2023-01-29T17:26:28;12.07;;;4.78;;
62654;SDS011;48717;55.556;37.816;2023-01-29T17:28:57;13.27;;;5.35;;
62654;SDS011;48717;55.556;37.816;2023-01-29T17:31:24;17.17;;;6.95;;
62654;SDS011;48717;55.556;37.816;2023-01-29T17:33:51;12.75;;;5.03;;
62654;SDS011;48717;55.556;37.816;2023-01-29T17:36:19;17.35;;;6.82;;
62654;SDS011;48717;55.556;37.816;2023-01-29T17:38:46;8.13;;;3.85;;
62654;SDS011;48717;55.556;37.816;2023-01-29T17:41:18;21.08;;;7.20;;
62654;SDS011;48717;55.556;37.816;2023-01-29T17:43:51;16.88;;;7.90;;
62654;SDS011;48717;55.556;37.816;2023-01-29T17:46:18;18.00;;;9.23;;
62654;SDS011;48717;55.556;37.816;2023-01-29T17:48:47;10.75;;;4.90;;
62654;SDS011;48717;55.556;37.816;2023-01-29T17:51:20;20.63;;;7.47;;
62654;SDS011;48717;55.556;37.816;2023-01-29T17:54:35;16.35;;;5.72;;
62654;SDS011;48717;55.556;37.816;2023-01-29T17:57:26;10.55;;;4.68;;
62654;SDS011;48717;55.556;37.816;2023-01-29T17:59:57;6.57;;;3.75;;
62654;SDS011;48717;55.556;37.816;2023-01-29T18:02:25;10.77;;;4.90;;
62654;SDS011;48717;55.556;37.816;2023-01-29T18:05:06;17.13;;;6.53;;
62654;SDS011;48717;55.556;37.816;2023-01-29T18:07:34;16.73;;;6.38;;
62654;SDS011;48717;55.556;37.816;2023-01-29T18:10:14;12.95;;;6.43;;
62654;SDS011;48717;55.556;37.816;2023-01-29T18:12:43;13.07;;;5.57;;
62654;SDS011;48717;55.556;37.816;2023-01-29T18:15:11;13.68;;;5.53;;
62654;SDS011;48717;55.556;37.816;2023-01-29T18:17:39;11.65;;;4.93;;
62654;SDS011;48717;55.556;37.816;2023-01-29T18:20:18;11.80;;;5.53;;
62654;SDS011;48717;55.556;37.816;2023-01-29T18:22:47;14.68;;;5.05;;
62654;SDS011;48717;55.556;37.816;2023-01-29T18:25:16;8.98;;;4.20;;
62654;SDS011;48717;55.556;37.816;2023-01-29T18:27:44;11.13;;;5.43;;
62654;SDS011;48717;55.556;37.816;2023-01-29T18:30:12;16.88;;;6.15;;
62654;SDS011;48717;55.556;37.816;2023-01-29T18:32:40;18.65;;;9.13;;
62654;SDS011;48717;55.556;37.816;2023-01-29T18:35:08;17.17;;;6.57;;
62654;SDS011;48717;55.556;37.816;2023-01-29T18:38:26;19.90;;;7.45;;
62654;SDS011;48717;55.556;37.816;2023-01-29T18:51:15;16.02;;;7.40;;
62654;SDS011;48717;55.556;37.816;2023-01-29T19:03:19;18.77;;;7.78;;
62654;SDS011;48717;55.556;37.816;2023-01-29T19:06:17;13.98;;;5.80;;
62654;SDS011;48717;55.556;37.816;2023-01-29T19:09:32;17.00;;;6.28;;
62654;SDS011;48717;55.556;37.816;2023-01-29T19:12:20;7.55;;;3.92;;
62654;SDS011;48717;55.556;37.816;2023-01-29T19:15:05;12.52;;;5.97;;